sensor_id;sensor_type;location;lat;lon;timestamp;pressure;altitude;pressure_sealevel;temperature;humidity
19210;BME280;9738;51.654;14.238;2022-12-01T00:00:44;101651.19;;;-0.18;100.00
19210;BME280;9738;51.654;14.238;2022-12-01T00:03:10;101649.00;;;-0.07;100.00
19210;BME280;9738;51.654;14.238;2022-12-01T00:05:36;101647.91;;;0.01;100.00
19210;BME280;9738;51.654;14.238;2022-12-01T00:08:02;101646.88;;;0.05;100.00
19210;BME280;9738;51.654;14.238;2022-12-01T00:10:31;101646.06;;;0.03;100.00
19210;BME280;9738;51.654;14.238;2022-12-01T00:12:59;101642.59;;;0.02;100.00
19210;BME280;9738;51.654;14.238;2022-12-01T00:15:29;101649.56;;;0.03;100.00
19210;BME280;9738;51.654;14.238;2022-12-01T00:17:56;101639.28;;;-0.03;100.00
19210;BME280;9738;51.654;14.238;2022-12-01T00:20:23;101637.56;;;-0.04;100.00
19210;BME280;9738;51.654;14.238;2022-12-01T00:22:48;101636.72;;;-0.05;100.00
19210;BME280;9738;51.654;14.238;2022-12-01T00:25:16;101640.25;;;-0.06;100.00
19210;BME280;9738;51.654;14.238;2022-12-01T00:27:47;101648.13;;;-0.06;100.00
19210;BME280;9738;51.654;14.238;2022-12-01T00:30:13;101638.63;;;-0.10;100.00
19210;BME280;9738;51.654;14.238;2022-12-01T00:32:39;101633.38;;;-0.10;100.00
19210;BME280;9738;51.654;14.238;2022-12-01T00:35:05;101635.22;;;-0.12;100.00
19210;BME280;9738;51.654;14.238;2022-12-01T00:37:32;101640.47;;;-0.12;100.00
19210;BME280;9738;51.654;14.238;2022-12-01T00:39:59;101634.66;;;-0.21;100.00
19210;BME280;9738;51.654;14.238;2022-12-01T00:42:26;101635.22;;;-0.38;100.00
19210;BME280;9738;51.654;14.238;2022-12-01T00:44:52;101644.78;;;-0.36;100.00
19210;BME280;9738;51.654;14.238;2022-12-01T00:47:18;101639.38;;;-0.31;100.00
19210;BME280;9738;51.654;14.238;2022-12-01T00:49:45;101644.38;;;-0.23;100.00
19210;BME280;9738;51.654;14.238;2022-12-01T00:52:12;101646.78;;;-0.17;100.00
19210;BME280;9738;51.654;14.238;2022-12-01T00:54:38;101657.94;;;-0.11;100.00
19210;BME280;9738;51.654;14.238;2022-12-01T00:57:05;101649.69;;;-0.25;100.00
19210;BME280;9738;51.654;14.238;2022-12-01T00:59:31;101654.22;;;-0.30;100.00
19210;BME280;9738;51.654;14.238;2022-12-01T01:01:57;101653.38;;;-0.31;100.00
19210;BME280;9738;51.654;14.238;2022-12-01T01:04:23;101650.63;;;-0.28;100.00
19210;BME280;9738;51.654;14.238;2022-12-01T01:06:49;101656.50;;;-0.21;100.00
19210;BME280;9738;51.654;14.238;2022-12-01T01:09:15;101649.47;;;-0.19;100.00
19210;BME280;9738;51.654;14.238;2022-12-01T01:11:42;101654.47;;;-0.13;100.00
19210;BME280;9738;51.654;14.238;2022-12-01T01:14:08;101663.69;;;-0.26;100.00
19210;BME280;9738;51.654;14.238;2022-12-01T01:16:34;101653.50;;;-0.35;100.00
19210;BME280;9738;51.654;14.238;2022-12-01T01:19:01;101662.09;;;-0.30;100.00
19210;BME280;9738;51.654;14.238;2022-12-01T01:21:26;101656.63;;;-0.24;100.00
19210;BME280;9738;51.654;14.238;2022-12-01T01:23:53;101655.66;;;-0.21;100.00
19210;BME280;9738;51.654;14.238;2022-12-01T01:26:25;101656.63;;;-0.24;100.00
19210;BME280;9738;51.654;14.238;2022-12-01T01:28:52;101659.06;;;-0.18;100.00
19210;BME280;9738;51.654;14.238;2022-12-01T01:31:20;101658.00;;;-0.12;100.00
19210;BME280;9738;51.654;14.238;2022-12-01T01:33:47;101658.72;;;-0.09;100.00
19210;BME280;9738;51.654;14.238;2022-12-01T01:36:14;101645.59;;;-0.09;100.00
19210;BME280;9738;51.654;14.238;2022-12-01T01:38:41;101648.34;;;-0.12;100.00
19210;BME280;9738;51.654;14.238;2022-12-01T01:41:08;101653.63;;;-0.13;100.00
19210;BME280;9738;51.654;14.238;2022-12-01T01:43:41;101653.75;;;-0.16;100.00
19210;BME280;9738;51.654;14.238;2022-12-01T01:46:19;101651.97;;;-0.16;100.00
19210;BME280;9738;51.654;14.238;2022-12-01T01:48:52;101656.25;;;-0.13;100.00
19210;BME280;9738;51.654;14.238;2022-12-01T01:51:24;101649.41;;;-0.17;100.00
19210;BME280;9738;51.654;14.238;2022-12-01T01:53:54;101644.25;;;-0.20;100.00
19210;BME280;9738;51.654;14.238;2022-12-01T01:56:22;101644.09;;;-0.16;100.00
19210;BME280;9738;51.654;14.238;2022-12-01T01:58:48;101645.75;;;-0.13;100.00
19210;BME280;9738;51.654;14.238;2022-12-01T02:01:15;101652.81;;;-0.15;100.00
19210;BME280;9738;51.654;14.238;2022-12-01T02:03:42;101645.72;;;-0.12;100.00
19210;BME280;9738;51.654;14.238;2022-12-01T02:06:08;101643.13;;;-0.13;100.00
19210;BME280;9738;51.654;14.238;2022-12-01T02:08:35;101643.19;;;-0.15;100.00
19210;BME280;9738;51.654;14.238;2022-12-01T02:11:20;101645.81;;;-0.15;100.00
19210;BME280;9738;51.654;14.238;2022-12-01T02:16:48;101644.94;;;-0.15;100.00
19210;BME280;9738;51.654;14.238;2022-12-01T02:19:40;101646.00;;;-0.21;100.00
19210;BME280;9738;51.654;14.238;2022-12-01T02:25:18;101649.69;;;-0.27;100.00
19210;BME280;9738;51.654;14.238;2022-12-01T02:31:00;101652.59;;;-0.34;100.00
19210;BME280;9738;51.654;14.238;2022-12-01T02:33:36;101651.69;;;-0.33;100.00
19210;BME280;9738;51.654;14.238;2022-12-01T02:36:14;101647.34;;;-0.34;100.00
19210;BME280;9738;51.654;14.238;2022-12-01T02:38:55;101646.44;;;-0.33;100.00
19210;BME280;9738;51.654;14.238;2022-12-01T02:41:26;101644.66;;;-0.33;100.00
19210;BME280;9738;51.654;14.238;2022-12-01T02:44:05;101645.53;;;-0.32;100.00
19210;BME280;9738;51.654;14.238;2022-12-01T02:46:37;101645.53;;;-0.32;100.00
19210;BME280;9738;51.654;14.238;2022-12-01T02:49:17;101650.75;;;-0.31;100.00
19210;BME280;9738;51.654;14.238;2022-12-01T02:51:44;101641.19;;;-0.33;100.00
19210;BME280;9738;51.654;14.238;2022-12-01T02:54:12;101643.00;;;-0.35;100.00
19210;BME280;9738;51.654;14.238;2022-12-01T02:56:39;101639.59;;;-0.37;100.00
19210;BME280;9738;51.654;14.238;2022-12-01T02:59:14;101649.97;;;-0.34;100.00
19210;BME280;9738;51.654;14.238;2022-12-01T03:02:08;101646.34;;;-0.30;100.00
19210;BME280;9738;51.654;14.238;2022-12-01T03:05:04;101640.25;;;-0.31;100.00
19210;BME280;9738;51.654;14.238;2022-12-01T03:07:58;101641.19;;;-0.33;100.00
19210;BME280;9738;51.654;14.238;2022-12-01T03:10:41;101639.47;;;-0.34;100.00
19210;BME280;9738;51.654;14.238;2022-12-01T03:16:16;101645.38;;;-0.28;100.00
19210;BME280;9738;51.654;14.238;2022-12-01T03:18:52;101638.47;;;-0.30;100.00
19210;BME280;9738;51.654;14.238;2022-12-01T03:21:24;101649.06;;;-0.33;100.00
19210;BME280;9738;51.654;14.238;2022-12-01T03:23:59;101639.47;;;-0.34;100.00
19210;BME280;9738;51.654;14.238;2022-12-01T03:26:29;101649.13;;;-0.35;100.00
19210;BME280;9738;51.654;14.238;2022-12-01T03:29:10;101653.50;;;-0.35;100.00
19210;BME280;9738;51.654;14.238;2022-12-01T03:31:41;101656.84;;;-0.30;100.00
19210;BME280;9738;51.654;14.238;2022-12-01T03:34:36;101652.44;;;-0.30;100.00
19210;BME280;9738;51.654;14.238;2022-12-01T03:37:13;101651.59;;;-0.30;100.00
19210;BME280;9738;51.654;14.238;2022-12-01T03:39:45;101647.94;;;-0.26;100.00
19210;BME280;9738;51.654;14.238;2022-12-01T03:42:42;101657.44;;;-0.22;100.00
19210;BME280;9738;51.654;14.238;2022-12-01T03:45:18;101661.72;;;-0.19;100.00
19210;BME280;9738;51.654;14.238;2022-12-01T03:47:44;101658.22;;;-0.20;100.00
19210;BME280;9738;51.654;14.238;2022-12-01T03:50:11;101662.75;;;-0.23;100.00
19210;BME280;9738;51.654;14.238;2022-12-01T03:52:48;101661.78;;;-0.21;100.00
19210;BME280;9738;51.654;14.238;2022-12-01T03:55:30;101666.06;;;-0.18;100.00
19210;BME280;9738;51.654;14.238;2022-12-01T03:58:03;101665.97;;;-0.15;100.00
19210;BME280;9738;51.654;14.238;2022-12-01T04:00:30;101653.63;;;-0.13;100.00
19210;BME280;9738;51.654;14.238;2022-12-01T04:02:59;101649.28;;;-0.14;100.00
19210;BME280;9738;51.654;14.238;2022-12-01T04:05:27;101664.97;;;-0.13;100.00
19210;BME280;9738;51.654;14.238;2022-12-01T04:07:53;101660.63;;;-0.14;100.00
19210;BME280;9738;51.654;14.238;2022-12-01T04:10:20;101661.47;;;-0.12;100.00
19210;BME280;9738;51.654;14.238;2022-12-01T04:12:46;101654.38;;;-0.10;100.00
19210;BME280;9738;51.654;14.238;2022-12-01T04:15:12;101662.25;;;-0.10;100.00
19210;BME280;9738;51.654;14.238;2022-12-01T04:17:43;101654.38;;;-0.10;100.00
19210;BME280;9738;51.654;14.238;2022-12-01T04:20:12;101663.06;;;-0.08;100.00
19210;BME280;9738;51.654;14.238;2022-12-01T04:22:38;101663.03;;;-0.06;100.00
19210;BME280;9738;51.654;14.238;2022-12-01T04:25:05;101666.59;;;-0.09;100.00
19210;BME280;9738;51.654;14.238;2022-12-01T04:27:32;101666.72;;;-0.12;100.00
19210;BME280;9738;51.654;14.238;2022-12-01T04:29:58;101660.63;;;-0.12;100.00
19210;BME280;9738;51.654;14.238;2022-12-01T04:32:25;101656.94;;;-0.08;100.00
19210;BME280;9738;51.654;14.238;2022-12-01T04:34:50;101657.81;;;-0.08;100.00
19210;BME280;9738;51.654;14.238;2022-12-01T04:37:17;101647.31;;;-0.08;100.00
19210;BME280;9738;51.654;14.238;2022-12-01T04:39:43;101649.19;;;-0.11;100.00
19210;BME280;9738;51.654;14.238;2022-12-01T04:42:09;101648.28;;;-0.10;100.00
19210;BME280;9738;51.654;14.238;2022-12-01T04:44:35;101647.41;;;-0.11;100.00
19210;BME280;9738;51.654;14.238;2022-12-01T04:47:05;101654.38;;;-0.10;100.00
19210;BME280;9738;51.654;14.238;2022-12-01T04:49:31;101660.41;;;-0.06;100.00
19210;BME280;9738;51.654;14.238;2022-12-01T04:51:57;101659.56;;;-0.08;100.00
19210;BME280;9738;51.654;14.238;2022-12-01T04:54:24;101658.66;;;-0.07;100.00
19210;BME280;9738;51.654;14.238;2022-12-01T04:56:50;101663.06;;;-0.08;100.00
19210;BME280;9738;51.654;14.238;2022-12-01T04:59:16;101667.56;;;-0.11;100.00
19210;BME280;9738;51.654;14.238;2022-12-01T05:01:42;101666.75;;;-0.13;100.00
19210;BME280;9738;51.654;14.238;2022-12-01T05:04:12;101664.09;;;-0.12;100.00
19210;BME280;9738;51.654;14.238;2022-12-01T05:06:38;101658.88;;;-0.13;100.00
19210;BME280;9738;51.654;14.238;2022-12-01T05:09:05;101668.53;;;-0.14;100.00
19210;BME280;9738;51.654;14.238;2022-12-01T05:11:31;101667.59;;;-0.13;100.00
19210;BME280;9738;51.654;14.238;2022-12-01T05:13:58;101675.41;;;-0.10;100.00
19210;BME280;9738;51.654;14.238;2022-12-01T05:16:27;101674.59;;;-0.12;100.00
19210;BME280;9738;51.654;14.238;2022-12-01T05:18:55;101674.59;;;-0.12;100.00
19210;BME280;9738;51.654;14.238;2022-12-01T05:21:43;101664.97;;;-0.13;100.00
19210;BME280;9738;51.654;14.238;2022-12-01T05:24:10;101666.81;;;-0.15;100.00
19210;BME280;9738;51.654;14.238;2022-12-01T05:26:36;101672.19;;;-0.18;100.00
19210;BME280;9738;51.654;14.238;2022-12-01T05:29:03;101663.47;;;-0.20;100.00
19210;BME280;9738;51.654;14.238;2022-12-01T05:31:30;101668.72;;;-0.20;100.00
19210;BME280;9738;51.654;14.238;2022-12-01T05:33:55;101670.41;;;-0.17;100.00
19210;BME280;9738;51.654;14.238;2022-12-01T05:36:22;101678.16;;;-0.14;100.00
19210;BME280;9738;51.654;14.238;2022-12-01T05:38:48;101675.44;;;-0.11;100.00
19210;BME280;9738;51.654;14.238;2022-12-01T05:41:14;101676.53;;;-0.17;100.00
19210;BME280;9738;51.654;14.238;2022-12-01T05:43:40;101666.94;;;-0.18;100.00
19210;BME280;9738;51.654;14.238;2022-12-01T05:46:06;101675.59;;;-0.16;100.00
19210;BME280;9738;51.654;14.238;2022-12-01T05:48:32;101669.28;;;-0.10;100.00
19210;BME280;9738;51.654;14.238;2022-12-01T05:50:58;101671.75;;;-0.06;100.00
19210;BME280;9738;51.654;14.238;2022-12-01T05:53:24;101673.31;;;0.00;100.00
19210;BME280;9738;51.654;14.238;2022-12-01T05:55:51;101674.97;;;0.03;100.00
19210;BME280;9738;51.654;14.238;2022-12-01T05:58:18;101672.19;;;0.07;100.00
19210;BME280;9738;51.654;14.238;2022-12-01T06:00:44;101672.13;;;0.09;100.00
19210;BME280;9738;51.654;14.238;2022-12-01T06:03:10;101669.59;;;0.06;100.00
19210;BME280;9738;51.654;14.238;2022-12-01T06:05:36;101678.31;;;0.08;100.00
19210;BME280;9738;51.654;14.238;2022-12-01T06:08:02;101677.47;;;0.06;100.00
19210;BME280;9738;51.654;14.238;2022-12-01T06:10:27;101678.31;;;0.08;100.00
19210;BME280;9738;51.654;14.238;2022-12-01T06:12:54;101674.75;;;0.09;100.00
19210;BME280;9738;51.654;14.238;2022-12-01T06:15:20;101666.09;;;0.07;100.00
19210;BME280;9738;51.654;14.238;2022-12-01T06:17:45;101677.66;;;0.01;100.00
19210;BME280;9738;51.654;14.238;2022-12-01T06:20:12;101682.91;;;0.01;100.00
19210;BME280;9738;51.654;14.238;2022-12-01T06:22:37;101682.06;;;0.01;100.00
19210;BME280;9738;51.654;14.238;2022-12-01T06:25:03;101687.19;;;0.04;100.00
19210;BME280;9738;51.654;14.238;2022-12-01T06:27:30;101686.19;;;0.08;100.00
19210;BME280;9738;51.654;14.238;2022-12-01T06:29:55;101687.88;;;0.09;100.00
19210;BME280;9738;51.654;14.238;2022-12-01T06:32:21;101682.63;;;0.09;100.00
19210;BME280;9738;51.654;14.238;2022-12-01T06:34:47;101692.34;;;0.07;100.00
19210;BME280;9738;51.654;14.238;2022-12-01T06:37:13;101705.41;;;0.08;100.00
19210;BME280;9738;51.654;14.238;2022-12-01T06:39:40;101696.69;;;0.08;100.00
19210;BME280;9738;51.654;14.238;2022-12-01T06:42:06;101698.34;;;0.10;100.00
19210;BME280;9738;51.654;14.238;2022-12-01T06:44:32;101697.38;;;0.13;100.00
19210;BME280;9738;51.654;14.238;2022-12-01T06:46:58;101697.47;;;0.10;100.00
19210;BME280;9738;51.654;14.238;2022-12-01T06:49:24;101697.53;;;0.08;100.00
19210;BME280;9738;51.654;14.238;2022-12-01T06:51:50;101703.66;;;0.09;100.00
19210;BME280;9738;51.654;14.238;2022-12-01T06:54:15;101701.97;;;0.06;100.00
19210;BME280;9738;51.654;14.238;2022-12-01T06:56:43;101709.00;;;0.06;100.00
19210;BME280;9738;51.654;14.238;2022-12-01T06:59:10;101708.19;;;0.04;100.00
19210;BME280;9738;51.654;14.238;2022-12-01T07:01:36;101712.66;;;0.02;100.00
19210;BME280;9738;51.654;14.238;2022-12-01T07:04:02;101708.31;;;0.01;100.00
19210;BME280;9738;51.654;14.238;2022-12-01T07:06:29;101708.47;;;-0.04;100.00
19210;BME280;9738;51.654;14.238;2022-12-01T07:08:55;101712.03;;;-0.07;100.00
19210;BME280;9738;51.654;14.238;2022-12-01T07:11:21;101693.78;;;-0.10;100.00
19210;BME280;9738;51.654;14.238;2022-12-01T07:13:47;101705.19;;;-0.11;100.00
19210;BME280;9738;51.654;14.238;2022-12-01T07:16:14;101710.31;;;-0.08;100.00
19210;BME280;9738;51.654;14.238;2022-12-01T07:18:41;101709.41;;;-0.07;100.00
19210;BME280;9738;51.654;14.238;2022-12-01T07:21:10;101713.78;;;-0.06;100.00
19210;BME280;9738;51.654;14.238;2022-12-01T07:23:37;101717.28;;;-0.07;100.00
19210;BME280;9738;51.654;14.238;2022-12-01T07:26:05;101721.75;;;-0.09;100.00
19210;BME280;9738;51.654;14.238;2022-12-01T07:28:32;101716.41;;;-0.06;100.00
19210;BME280;9738;51.654;14.238;2022-12-01T07:31:06;101721.59;;;-0.04;100.00
19210;BME280;9738;51.654;14.238;2022-12-01T07:33:33;101723.31;;;-0.03;100.00
19210;BME280;9738;51.654;14.238;2022-12-01T07:35:59;101727.59;;;-0.01;100.00
19210;BME280;9738;51.654;14.238;2022-12-01T07:38:27;101716.22;;;-0.01;100.00
19210;BME280;9738;51.654;14.238;2022-12-01T07:40:54;101725.09;;;-0.04;100.00
19210;BME280;9738;51.654;14.238;2022-12-01T07:43:20;101729.34;;;0.01;100.00
19210;BME280;9738;51.654;14.238;2022-12-01T07:45:46;101730.91;;;0.05;100.00
19210;BME280;9738;51.654;14.238;2022-12-01T07:48:13;101735.16;;;0.09;100.00
19210;BME280;9738;51.654;14.238;2022-12-01T07:50:38;101736.94;;;0.08;100.00
19210;BME280;9738;51.654;14.238;2022-12-01T07:53:04;101738.00;;;0.03;100.00
19210;BME280;9738;51.654;14.238;2022-12-01T07:55:30;101731.91;;;0.02;100.00
19210;BME280;9738;51.654;14.238;2022-12-01T07:57:58;101722.25;;;0.03;100.00
19210;BME280;9738;51.654;14.238;2022-12-01T08:00:25;101732.75;;;0.03;100.00
19210;BME280;9738;51.654;14.238;2022-12-01T08:02:52;101736.19;;;0.05;100.00
19210;BME280;9738;51.654;14.238;2022-12-01T08:05:17;101730.88;;;0.06;100.00
19210;BME280;9738;51.654;14.238;2022-12-01T08:07:43;101731.63;;;0.10;100.00
19210;BME280;9738;51.654;14.238;2022-12-01T08:10:10;101728.94;;;0.11;100.00
19210;BME280;9738;51.654;14.238;2022-12-01T08:12:36;101733.25;;;0.14;100.00
19210;BME280;9738;51.654;14.238;2022-12-01T08:15:02;101735.88;;;0.14;100.00
19210;BME280;9738;51.654;14.238;2022-12-01T08:17:28;101729.72;;;0.15;100.00
19210;BME280;9738;51.654;14.238;2022-12-01T08:19:54;101734.03;;;0.16;100.00
19210;BME280;9738;51.654;14.238;2022-12-01T08:22:20;101728.66;;;0.19;100.00
19210;BME280;9738;51.654;14.238;2022-12-01T08:24:46;101732.19;;;0.19;100.00
19210;BME280;9738;51.654;14.238;2022-12-01T08:27:12;101730.41;;;0.20;100.00
19210;BME280;9738;51.654;14.238;2022-12-01T08:29:37;101729.78;;;0.12;100.00
19210;BME280;9738;51.654;14.238;2022-12-01T08:32:04;101732.53;;;0.09;100.00
19210;BME280;9738;51.654;14.238;2022-12-01T08:34:30;101737.00;;;0.07;100.00
19210;BME280;9738;51.654;14.238;2022-12-01T08:36:55;101743.06;;;0.09;100.00
19210;BME280;9738;51.654;14.238;2022-12-01T08:39:22;101740.47;;;0.07;100.00
19210;BME280;9738;51.654;14.238;2022-12-01T08:41:47;101739.63;;;0.07;100.00
19210;BME280;9738;51.654;14.238;2022-12-01T08:44:13;101741.38;;;0.06;100.00
19210;BME280;9738;51.654;14.238;2022-12-01T08:46:39;101736.88;;;0.10;100.00
19210;BME280;9738;51.654;14.238;2022-12-01T08:49:05;101746.38;;;0.14;100.00
19210;BME280;9738;51.654;14.238;2022-12-01T08:51:32;101745.34;;;0.18;100.00
19210;BME280;9738;51.654;14.238;2022-12-01T08:54:00;101739.19;;;0.19;100.00
19210;BME280;9738;51.654;14.238;2022-12-01T08:56:38;101741.72;;;0.22;100.00
19210;BME280;9738;51.654;14.238;2022-12-01T08:59:05;101744.28;;;0.23;100.00
19210;BME280;9738;51.654;14.238;2022-12-01T09:01:31;101746.84;;;0.25;100.00
19210;BME280;9738;51.654;14.238;2022-12-01T09:03:59;101753.94;;;0.23;100.00
19210;BME280;9738;51.654;14.238;2022-12-01T09:06:37;101752.16;;;0.23;100.00
19210;BME280;9738;51.654;14.238;2022-12-01T09:09:04;101749.59;;;0.22;100.00
19210;BME280;9738;51.654;14.238;2022-12-01T09:11:30;101755.72;;;0.22;100.00
19210;BME280;9738;51.654;14.238;2022-12-01T09:13:57;101756.56;;;0.23;100.00
19210;BME280;9738;51.654;14.238;2022-12-01T09:16:23;101756.69;;;0.20;100.00
19210;BME280;9738;51.654;14.238;2022-12-01T09:18:49;101754.09;;;0.18;100.00
19210;BME280;9738;51.654;14.238;2022-12-01T09:21:24;101755.06;;;0.16;100.00
19210;BME280;9738;51.654;14.238;2022-12-01T09:23:50;101759.53;;;0.12;100.00
19210;BME280;9738;51.654;14.238;2022-12-01T09:26:18;101756.03;;;0.13;100.00
19210;BME280;9738;51.654;14.238;2022-12-01T09:28:48;101752.59;;;0.11;100.00
19210;BME280;9738;51.654;14.238;2022-12-01T09:31:15;101755.19;;;0.13;100.00
19210;BME280;9738;51.654;14.238;2022-12-01T09:33:43;101749.97;;;0.11;100.00
19210;BME280;9738;51.654;14.238;2022-12-01T09:36:09;101748.19;;;0.12;100.00
19210;BME280;9738;51.654;14.238;2022-12-01T09:38:36;101745.69;;;0.09;100.00
19210;BME280;9738;51.654;14.238;2022-12-01T09:41:28;101738.66;;;0.09;100.00
19210;BME280;9738;51.654;14.238;2022-12-01T09:46:44;101736.94;;;0.08;100.00
19210;BME280;9738;51.654;14.238;2022-12-01T09:49:16;101737.78;;;0.09;100.00
19210;BME280;9738;51.654;14.238;2022-12-01T09:51:44;101742.13;;;0.10;100.00
19210;BME280;9738;51.654;14.238;2022-12-01T09:54:12;101739.50;;;0.10;100.00
19210;BME280;9738;51.654;14.238;2022-12-01T09:56:43;101739.41;;;0.13;100.00
19210;BME280;9738;51.654;14.238;2022-12-01T09:59:16;101743.84;;;0.11;100.00
19210;BME280;9738;51.654;14.238;2022-12-01T10:01:47;101736.81;;;0.11;100.00
19210;BME280;9738;51.654;14.238;2022-12-01T10:04:32;101733.28;;;0.12;100.00
19210;BME280;9738;51.654;14.238;2022-12-01T10:07:03;101733.13;;;0.17;100.00
19210;BME280;9738;51.654;14.238;2022-12-01T10:09:42;101738.28;;;0.20;100.00
19210;BME280;9738;51.654;14.238;2022-12-01T10:12:17;101725.03;;;0.23;100.00
19210;BME280;9738;51.654;14.238;2022-12-01T10:14:46;101725.78;;;0.26;100.00
19210;BME280;9738;51.654;14.238;2022-12-01T10:17:25;101724.03;;;0.27;100.00
19210;BME280;9738;51.654;14.238;2022-12-01T10:20:21;101718.78;;;0.27;100.00
19210;BME280;9738;51.654;14.238;2022-12-01T10:23:04;101716.09;;;0.29;100.00
19210;BME280;9738;51.654;14.238;2022-12-01T10:28:48;101717.50;;;0.37;100.00
19210;BME280;9738;51.654;14.238;2022-12-01T10:34:13;101713.94;;;0.40;100.00
19210;BME280;9738;51.654;14.238;2022-12-01T10:36:40;101709.41;;;0.43;100.00
19210;BME280;9738;51.654;14.238;2022-12-01T10:39:15;101709.31;;;0.46;100.00
19210;BME280;9738;51.654;14.238;2022-12-01T10:41:43;101705.84;;;0.46;100.00
19210;BME280;9738;51.654;14.238;2022-12-01T10:44:08;101694.47;;;0.45;100.00
19210;BME280;9738;51.654;14.238;2022-12-01T10:46:48;101703.22;;;0.44;100.00
19210;BME280;9738;51.654;14.238;2022-12-01T10:49:16;101698.81;;;0.46;100.00
19210;BME280;9738;51.654;14.238;2022-12-01T10:51:55;101706.78;;;0.43;100.00
19210;BME280;9738;51.654;14.238;2022-12-01T10:54:30;101701.72;;;0.39;100.00
19210;BME280;9738;51.654;14.238;2022-12-01T10:56:57;101698.97;;;0.42;100.00
19210;BME280;9738;51.654;14.238;2022-12-01T10:59:29;101700.84;;;0.38;100.00
19210;BME280;9738;51.654;14.238;2022-12-01T11:01:56;101700.78;;;0.40;100.00
19210;BME280;9738;51.654;14.238;2022-12-01T11:04:42;101701.66;;;0.40;100.00
19210;BME280;9738;51.654;14.238;2022-12-01T11:07:43;101705.00;;;0.44;100.00
19210;BME280;9738;51.654;14.238;2022-12-01T11:10:18;101700.50;;;0.47;100.00
19210;BME280;9738;51.654;14.238;2022-12-01T11:12:54;101703.00;;;0.50;100.00
19210;BME280;9738;51.654;14.238;2022-12-01T11:15:25;101701.06;;;0.56;100.00
19210;BME280;9738;51.654;14.238;2022-12-01T11:18:19;101694.97;;;0.55;100.00
19210;BME280;9738;51.654;14.238;2022-12-01T11:20:45;101689.63;;;0.58;100.00
19210;BME280;9738;51.654;14.238;2022-12-01T11:28:30;101687.00;;;0.57;100.00
19210;BME280;9738;51.654;14.238;2022-12-01T11:31:01;101686.06;;;0.59;100.00
19210;BME280;9738;51.654;14.238;2022-12-01T11:33:28;101694.66;;;0.64;100.00
19210;BME280;9738;51.654;14.238;2022-12-01T11:35:55;101684.13;;;0.64;100.00
19210;BME280;9738;51.654;14.238;2022-12-01T11:38:24;101692.81;;;0.66;100.00
19210;BME280;9738;51.654;14.238;2022-12-01T11:40:56;101690.00;;;0.71;100.00
19210;BME280;9738;51.654;14.238;2022-12-01T11:43:29;101686.41;;;0.73;100.00
19210;BME280;9738;51.654;14.238;2022-12-01T11:45:58;101673.09;;;0.78;100.00
19210;BME280;9738;51.654;14.238;2022-12-01T11:48:29;101675.50;;;0.82;100.00
19210;BME280;9738;51.654;14.238;2022-12-01T11:53:44;101672.84;;;0.84;100.00
19210;BME280;9738;51.654;14.238;2022-12-01T11:56:17;101674.63;;;0.84;100.00
19210;BME280;9738;51.654;14.238;2022-12-01T11:58:47;101671.94;;;0.85;100.00
19210;BME280;9738;51.654;14.238;2022-12-01T12:04:06;101673.53;;;0.89;100.00
19210;BME280;9738;51.654;14.238;2022-12-01T12:06:48;101674.38;;;0.90;100.00
19210;BME280;9738;51.654;14.238;2022-12-01T12:09:45;101677.81;;;0.92;100.00
19210;BME280;9738;51.654;14.238;2022-12-01T12:15:34;101667.16;;;0.95;100.00
19210;BME280;9738;51.654;14.238;2022-12-01T12:18:38;101663.63;;;0.96;100.00
19210;BME280;9738;51.654;14.238;2022-12-01T12:29:21;101659.34;;;1.15;100.00
19210;BME280;9738;51.654;14.238;2022-12-01T12:35:06;101657.38;;;1.20;100.00
19210;BME280;9738;51.654;14.238;2022-12-01T12:40:39;101656.16;;;1.29;100.00
19210;BME280;9738;51.654;14.238;2022-12-01T12:43:31;101661.97;;;1.37;100.00
19210;BME280;9738;51.654;14.238;2022-12-01T12:46:12;101661.97;;;1.37;100.00
19210;BME280;9738;51.654;14.238;2022-12-01T12:51:12;101659.22;;;1.40;100.00
19210;BME280;9738;51.654;14.238;2022-12-01T12:53:59;101662.63;;;1.42;100.00
19210;BME280;9738;51.654;14.238;2022-12-01T12:56:30;101657.22;;;1.45;100.00
19210;BME280;9738;51.654;14.238;2022-12-01T12:59:10;101655.41;;;1.47;100.00
19210;BME280;9738;51.654;14.238;2022-12-01T13:01:43;101662.25;;;1.51;100.00
19210;BME280;9738;51.654;14.238;2022-12-01T13:04:15;101662.31;;;1.50;100.00
19210;BME280;9738;51.654;14.238;2022-12-01T13:06:58;101655.28;;;1.50;100.00
19210;BME280;9738;51.654;14.238;2022-12-01T13:09:29;101660.59;;;1.49;100.00
19210;BME280;9738;51.654;14.238;2022-12-01T13:12:13;101649.09;;;1.51;100.00
19210;BME280;9738;51.654;14.238;2022-12-01T13:15:13;101651.72;;;1.51;100.00
19210;BME280;9738;51.654;14.238;2022-12-01T13:17:43;101656.97;;;1.51;100.00
19210;BME280;9738;51.654;14.238;2022-12-01T13:20:15;101652.72;;;1.49;100.00
19210;BME280;9738;51.654;14.238;2022-12-01T13:22:44;101654.50;;;1.48;100.00
19210;BME280;9738;51.654;14.238;2022-12-01T13:25:13;101658.94;;;1.46;100.00
19210;BME280;9738;51.654;14.238;2022-12-01T13:27:41;101658.09;;;1.46;100.00
19210;BME280;9738;51.654;14.238;2022-12-01T13:30:25;101656.53;;;1.42;100.00
19210;BME280;9738;51.654;14.238;2022-12-01T13:33:01;101644.28;;;1.41;100.00
19210;BME280;9738;51.654;14.238;2022-12-01T13:35:36;101652.19;;;1.41;100.00
19210;BME280;9738;51.654;14.238;2022-12-01T13:38:20;101650.41;;;1.41;100.00
19210;BME280;9738;51.654;14.238;2022-12-01T13:40:47;101647.78;;;1.41;100.00
19210;BME280;9738;51.654;14.238;2022-12-01T13:43:19;101652.09;;;1.42;100.00
19210;BME280;9738;51.654;14.238;2022-12-01T13:45:47;101646.84;;;1.42;100.00
19210;BME280;9738;51.654;14.238;2022-12-01T13:48:49;101653.81;;;1.43;100.00
19210;BME280;9738;51.654;14.238;2022-12-01T13:51:15;101653.69;;;1.46;100.00
19210;BME280;9738;51.654;14.238;2022-12-01T13:56:44;101651.19;;;1.43;100.00